Time;durP1;ratioP1;P1;durP2;ratioP2;P2;SDS_P1;SDS_P2;PMS_P1;PMS_P2;Temp;Humidity;BMP_temperature;BMP_pressure;BME280_temperature;BME280_humidity;BME280_pressure;Samples;Min_cycle;Max_cycle;Signal;HPM_P1;HPM_P2
2022/04/24 00:01:55;;;;;;;6.43;5.75;;;14.00;92.40;;;;;;5054564;28;20048;-63
2022/04/24 00:04:21;;;;;;;6.50;5.25;;;14.00;92.40;;;;;;5054862;28;20025;-62
2022/04/24 00:06:46;;;;;;;6.07;5.25;;;14.00;92.40;;;;;;5054528;28;20037;-63
2022/04/24 00:09:16;;;;;;;6.93;5.25;;;14.00;92.40;;;;;;5054332;28;20032;-63
2022/04/24 00:11:42;;;;;;;7.00;4.90;;;14.00;92.30;;;;;;5054550;28;20017;-63
2022/04/24 00:14:10;;;;;;;6.50;4.72;;;14.00;92.20;;;;;;5054278;28;20032;-63
2022/04/24 00:16:39;;;;;;;5.70;4.38;;;14.00;92.50;;;;;;5054315;28;20021;-63
2022/04/24 00:19:06;;;;;;;11.43;5.22;;;14.00;92.20;;;;;;5054181;28;20025;-63
2022/04/24 00:21:32;;;;;;;6.75;4.85;;;14.00;92.20;;;;;;5054157;28;20021;-64
2022/04/24 00:23:58;;;;;;;6.57;4.55;;;14.00;92.20;;;;;;5053872;28;20025;-63
2022/04/24 00:26:24;;;;;;;12.32;3.80;;;14.00;92.20;;;;;;5054330;28;20555;-63
2022/04/24 00:28:49;;;;;;;5.03;2.90;;;14.00;92.10;;;;;;5054145;28;20021;-63
2022/04/24 00:31:15;;;;;;;5.85;2.15;;;13.90;92.10;;;;;;5054154;28;20033;-63
2022/04/24 00:33:41;;;;;;;6.03;2.55;;;14.00;91.70;;;;;;5054058;28;20033;-63
2022/04/24 00:36:07;;;;;;;6.45;2.30;;;13.90;91.30;;;;;;5054088;28;20550;-63
2022/04/24 00:38:34;;;;;;;6.70;2.20;;;13.90;91.30;;;;;;5053884;28;20075;-63
2022/04/24 00:41:00;;;;;;;7.13;2.38;;;13.90;91.30;;;;;;5053890;28;20021;-64
2022/04/24 00:43:25;;;;;;;4.60;1.90;;;13.90;91.30;;;;;;5053889;28;20359;-63
2022/04/24 00:45:59;;;;;;;6.95;1.98;;;13.90;91.40;;;;;;5053770;28;20465;-62
2022/04/24 00:48:26;;;;;;;5.47;2.00;;;13.80;91.50;;;;;;5053865;28;20032;-63
2022/04/24 00:50:52;;;;;;;3.92;1.83;;;13.80;91.60;;;;;;5053825;28;20025;-63
2022/04/24 00:53:17;;;;;;;4.60;1.80;;;13.80;91.70;;;;;;5053734;28;20029;-63
2022/04/24 00:55:44;;;;;;;4.25;1.80;;;13.80;91.80;;;;;;5053337;28;20035;-63
2022/04/24 00:58:10;;;;;;;4.97;1.70;;;13.70;91.70;;;;;;5052041;28;20039;-63
2022/04/24 01:00:38;;;;;;;3.53;1.42;;;13.80;91.60;;;;;;5050403;28;20049;-64
2022/04/24 01:03:04;;;;;;;2.45;1.20;;;13.70;91.60;;;;;;5050482;28;20033;-63
2022/04/24 01:05:30;;;;;;;6.53;1.50;;;13.70;91.60;;;;;;5052456;28;20025;-64
2022/04/24 01:07:56;;;;;;;2.80;1.40;;;13.70;91.50;;;;;;5053216;28;20031;-63
2022/04/24 01:10:21;;;;;;;6.15;1.58;;;13.70;91.50;;;;;;5053233;28;20033;-63
2022/04/24 01:12:47;;;;;;;6.68;1.33;;;13.70;91.60;;;;;;5053009;28;20433;-63
2022/04/24 01:15:13;;;;;;;7.35;1.45;;;13.70;91.60;;;;;;5053192;28;20044;-64
2022/04/24 01:17:40;;;;;;;3.67;1.23;;;13.70;91.60;;;;;;5052803;28;20029;-65
2022/04/24 01:20:06;;;;;;;2.85;1.23;;;13.70;91.70;;;;;;5052677;28;20059;-63
2022/04/24 01:22:33;;;;;;;2.65;1.10;;;13.70;91.70;;;;;;5053035;28;20021;-63
2022/04/24 01:24:58;;;;;;;3.20;1.50;;;13.70;91.60;;;;;;5052984;28;20040;-63
2022/04/24 01:27:24;;;;;;;4.20;1.15;;;13.70;91.50;;;;;;5053304;28;20025;-64
2022/04/24 01:29:51;;;;;;;5.25;1.42;;;13.70;91.40;;;;;;5052865;28;20037;-63
2022/04/24 01:32:17;;;;;;;4.57;1.55;;;13.70;91.50;;;;;;5053105;28;20040;-63
2022/04/24 01:34:43;;;;;;;4.00;1.17;;;13.70;91.60;;;;;;5052044;28;20488;-63
2022/04/24 01:37:09;;;;;;;4.28;1.52;;;13.70;91.70;;;;;;5052471;28;20025;-63
2022/04/24 01:39:34;;;;;;;5.40;1.10;;;13.70;91.70;;;;;;5053033;28;20090;-63
2022/04/24 01:42:00;;;;;;;3.97;1.10;;;13.70;91.70;;;;;;5053009;28;20371;-67
2022/04/24 01:44:26;;;;;;;2.83;1.15;;;13.80;91.60;;;;;;5052609;28;20048;-63
2022/04/24 01:46:52;;;;;;;3.35;0.75;;;13.80;91.20;;;;;;5053185;28;20104;-63
2022/04/24 01:49:18;;;;;;;5.00;1.38;;;13.80;91.00;;;;;;5053214;28;20123;-63
2022/04/24 01:51:44;;;;;;;2.55;1.10;;;13.80;90.90;;;;;;5052655;28;20477;-63
2022/04/24 01:54:10;;;;;;;3.33;1.25;;;13.80;91.10;;;;;;5052593;28;20033;-63
2022/04/24 01:56:35;;;;;;;3.80;1.02;;;13.80;91.20;;;;;;5052938;28;20094;-63
2022/04/24 01:59:01;;;;;;;5.13;1.13;;;13.80;91.20;;;;;;5052870;28;20029;-63
2022/04/24 02:01:27;;;;;;;3.67;1.30;;;13.80;91.30;;;;;;5052639;28;20136;-63
2022/04/24 02:03:52;;;;;;;5.50;1.00;;;13.80;91.50;;;;;;5052974;28;20028;-63
2022/04/24 02:06:18;;;;;;;5.75;1.20;;;13.80;91.60;;;;;;5052613;28;20032;-67
2022/04/24 02:08:44;;;;;;;5.85;0.98;;;13.90;91.40;;;;;;5052662;28;20111;-66
2022/04/24 02:11:09;;;;;;;6.50;1.40;;;13.90;91.40;;;;;;5052829;28;20025;-63
2022/04/24 02:13:35;;;;;;;7.20;1.70;;;13.90;91.40;;;;;;5052828;28;20545;-63
2022/04/24 02:16:01;;;;;;;7.53;1.30;;;13.90;91.50;;;;;;5052801;28;20021;-63
2022/04/24 02:18:27;;;;;;;4.70;1.00;;;13.80;91.70;;;;;;5052709;28;20079;-63
2022/04/24 02:20:53;;;;;;;3.65;0.90;;;13.90;91.80;;;;;;5052727;28;20033;-63
2022/04/24 02:23:18;;;;;;;2.85;0.90;;;13.90;91.50;;;;;;5052535;28;20113;-63
2022/04/24 02:25:44;;;;;;;2.60;0.93;;;13.90;91.40;;;;;;5052834;28;20440;-63
2022/04/24 02:28:10;;;;;;;3.15;0.85;;;13.90;91.30;;;;;;5052514;28;20036;-63
2022/04/24 02:30:35;;;;;;;5.10;1.17;;;14.00;91.30;;;;;;5052549;28;20025;-63
2022/04/24 02:33:02;;;;;;;6.00;1.30;;;14.00;91.30;;;;;;5052458;28;20533;-63
2022/04/24 02:35:30;;;;;;;5.15;0.98;;;14.00;91.20;;;;;;5052034;28;20041;-63
2022/04/24 02:37:56;;;;;;;6.28;1.02;;;14.00;91.30;;;;;;5052271;28;20029;-63
2022/04/24 02:40:21;;;;;;;6.35;1.40;;;14.00;91.20;;;;;;5052724;28;20033;-63
2022/04/24 02:42:50;;;;;;;6.85;1.40;;;14.00;91.10;;;;;;5052430;28;20033;-64
2022/04/24 02:45:16;;;;;;;4.75;1.23;;;14.10;91.20;;;;;;5052736;28;20079;-63
2022/04/24 02:47:41;;;;;;;6.10;1.25;;;14.00;91.30;;;;;;5056162;28;20025;-63
2022/04/24 02:50:07;;;;;;;6.85;1.55;;;14.10;91.30;;;;;;5055768;28;20052;-63
2022/04/24 02:52:44;;;;;;;8.00;1.33;;;14.10;91.40;;;;;;5055947;28;20029;-63
2022/04/24 02:55:09;;;;;;;7.75;1.58;;;14.10;91.50;;;;;;5055980;28;20039;-63
2022/04/24 02:57:36;;;;;;;6.65;1.92;;;14.00;91.50;;;;;;5056304;28;20021;-63
2022/04/24 03:00:03;;;;;;;4.53;1.05;;;14.00;91.60;;;;;;5055698;28;20029;-64
2022/04/24 03:02:29;;;;;;;5.75;1.27;;;14.10;91.70;;;;;;5055739;28;20021;-63
2022/04/24 03:04:54;;;;;;;5.03;1.05;;;14.00;91.70;;;;;;5055847;28;20409;-63
2022/04/24 03:07:20;;;;;;;6.50;1.10;;;14.00;91.90;;;;;;5055819;28;20033;-63
2022/04/24 03:09:46;;;;;;;9.02;1.63;;;14.00;91.90;;;;;;5055859;28;20033;-63
2022/04/24 03:12:11;;;;;;;12.40;1.65;;;14.00;91.90;;;;;;5055666;28;20033;-63
2022/04/24 03:14:37;;;;;;;6.03;1.55;;;14.00;92.10;;;;;;5055623;28;20032;-67
2022/04/24 03:17:03;;;;;;;5.70;1.30;;;14.00;92.20;;;;;;5055658;28;20096;-63
2022/04/24 03:19:28;;;;;;;4.85;1.38;;;14.00;92.40;;;;;;5055465;28;20519;-63
2022/04/24 03:21:54;;;;;;;5.55;1.75;;;14.00;92.50;;;;;;5055644;28;20028;-63
2022/04/24 03:24:20;;;;;;;4.65;1.27;;;14.00;92.50;;;;;;5055875;28;20028;-64
2022/04/24 03:26:45;;;;;;;9.27;1.65;;;13.90;92.60;;;;;;5055449;28;20111;-63
2022/04/24 03:29:11;;;;;;;4.60;1.10;;;14.00;92.70;;;;;;5055603;28;20044;-63
2022/04/24 03:31:36;;;;;;;7.72;1.50;;;13.90;92.70;;;;;;5055230;28;20021;-63
2022/04/24 03:34:02;;;;;;;12.13;1.90;;;14.00;93.00;;;;;;5055096;28;20138;-63
2022/04/24 03:36:28;;;;;;;9.05;1.50;;;14.00;93.10;;;;;;5055524;28;20171;-63
2022/04/24 03:38:53;;;;;;;6.47;1.65;;;13.90;93.20;;;;;;5055086;28;20405;-63
2022/04/24 03:41:19;;;;;;;15.25;2.17;;;13.90;93.40;;;;;;5054883;28;20051;-63
2022/04/24 03:43:45;;;;;;;10.35;1.60;;;13.80;93.90;;;;;;5055248;28;20036;-63
2022/04/24 03:46:10;;;;;;;9.13;2.00;;;13.80;94.10;;;;;;5055075;28;20106;-63
2022/04/24 03:48:36;;;;;;;13.57;2.97;;;13.70;94.30;;;;;;5054968;28;20473;-63
2022/04/24 03:51:02;;;;;;;5.78;2.05;;;13.70;94.40;;;;;;5054991;28;20021;-62
2022/04/24 03:53:28;;;;;;;9.68;1.67;;;13.70;94.40;;;;;;5054643;28;20090;-63
2022/04/24 03:55:53;;;;;;;15.07;2.03;;;13.60;94.40;;;;;;5054690;28;20033;-63
2022/04/24 03:58:19;;;;;;;18.75;3.33;;;13.60;94.30;;;;;;5053833;28;20029;-67
2022/04/24 04:00:45;;;;;;;12.55;2.05;;;13.60;94.40;;;;;;5054474;28;20053;-63
2022/04/24 04:03:11;;;;;;;18.13;3.17;;;13.50;94.50;;;;;;5054429;28;20462;-63
2022/04/24 04:05:37;;;;;;;11.52;1.80;;;13.40;94.70;;;;;;5054787;28;20025;-63
2022/04/24 04:08:04;;;;;;;12.55;1.60;;;13.40;94.60;;;;;;5054763;28;20025;-63
2022/04/24 04:10:30;;;;;;;8.02;1.50;;;13.40;94.30;;;;;;5054685;28;20032;-62
2022/04/24 04:12:56;;;;;;;15.45;1.80;;;13.40;93.90;;;;;;5054319;28;20021;-63
2022/04/24 04:15:21;;;;;;;10.73;2.20;;;13.30;93.80;;;;;;5053064;28;20123;-62
2022/04/24 04:17:48;;;;;;;16.73;4.30;;;13.20;93.70;;;;;;5054597;28;20029;-63
2022/04/24 04:20:13;;;;;;;9.23;1.88;;;13.20;93.70;;;;;;5054698;28;20029;-63
2022/04/24 04:22:48;;;;;;;8.52;1.98;;;13.20;93.50;;;;;;5054620;28;20390;-63
2022/04/24 04:25:14;;;;;;;10.65;1.35;;;13.10;93.00;;;;;;5054224;28;20064;-63
2022/04/24 04:27:40;;;;;;;5.60;1.00;;;13.00;92.60;;;;;;5054307;28;20021;-63
2022/04/24 04:30:06;;;;;;;8.88;1.10;;;13.00;92.50;;;;;;5054323;28;20032;-63
2022/04/24 04:32:33;;;;;;;4.53;1.08;;;12.90;92.50;;;;;;5054175;28;20025;-62
2022/04/24 04:34:59;;;;;;;5.55;1.10;;;12.90;92.00;;;;;;5053929;28;20474;-63
2022/04/24 04:37:24;;;;;;;5.05;0.90;;;12.80;91.40;;;;;;5054207;28;20159;-63
2022/04/24 04:39:50;;;;;;;5.40;0.93;;;12.80;91.40;;;;;;5053990;28;20056;-68
2022/04/24 04:42:16;;;;;;;3.83;0.77;;;12.80;91.50;;;;;;5053652;28;20029;-63
2022/04/24 04:44:43;;;;;;;5.10;0.85;;;12.80;91.60;;;;;;5053727;28;20388;-63
2022/04/24 04:47:08;;;;;;;3.47;0.82;;;12.80;91.70;;;;;;5054005;28;20029;-63
2022/04/24 04:49:34;;;;;;;4.57;1.00;;;12.80;91.50;;;;;;5053673;28;20037;-63
2022/04/24 04:52:00;;;;;;;6.07;1.10;;;12.80;91.60;;;;;;5053838;28;20021;-63
2022/04/24 04:54:25;;;;;;;4.95;0.70;;;12.80;91.70;;;;;;5053429;28;20046;-63
2022/04/24 04:56:51;;;;;;;7.45;1.00;;;12.80;91.70;;;;;;5053591;28;20021;-63
2022/04/24 04:59:16;;;;;;;3.13;0.73;;;12.80;91.60;;;;;;5053430;28;20060;-63
2022/04/24 05:01:42;;;;;;;2.90;0.50;;;12.80;91.60;;;;;;5053625;28;20513;-63
2022/04/24 05:04:08;;;;;;;2.85;0.70;;;12.80;91.50;;;;;;5053574;28;20079;-63
2022/04/24 05:06:35;;;;;;;6.80;1.00;;;12.80;91.40;;;;;;5053465;28;20037;-63
2022/04/24 05:09:00;;;;;;;6.10;1.00;;;12.80;91.20;;;;;;5053240;28;20033;-63
2022/04/24 05:11:27;;;;;;;8.02;1.70;;;12.80;91.20;;;;;;5053749;28;20040;-63
2022/04/24 05:13:52;;;;;;;3.95;0.80;;;12.70;91.10;;;;;;5053279;28;20393;-63
2022/04/24 05:16:18;;;;;;;4.63;2.05;;;12.70;91.00;;;;;;5053229;28;20036;-63
2022/04/24 05:18:43;;;;;;;5.43;1.20;;;12.70;91.00;;;;;;5053286;28;20037;-67
2022/04/24 05:21:09;;;;;;;5.60;0.70;;;12.70;91.00;;;;;;5053423;28;20029;-63
2022/04/24 05:23:35;;;;;;;10.95;1.20;;;12.70;91.20;;;;;;5053320;28;20028;-63
2022/04/24 05:26:00;;;;;;;4.57;1.00;;;12.70;91.30;;;;;;5053323;28;20370;-63
2022/04/24 05:28:26;;;;;;;3.45;0.90;;;12.70;91.40;;;;;;5053103;28;20037;-63
2022/04/24 05:30:52;;;;;;;5.63;1.05;;;12.80;91.30;;;;;;5053125;28;20029;-63
2022/04/24 05:33:18;;;;;;;3.67;1.00;;;12.80;91.00;;;;;;5053426;28;20033;-63
2022/04/24 05:35:44;;;;;;;7.85;1.15;;;12.80;90.90;;;;;;5053101;28;20064;-63
2022/04/24 05:38:11;;;;;;;3.28;1.00;;;12.80;90.80;;;;;;5052813;28;20470;-63
2022/04/24 05:40:37;;;;;;;8.88;0.90;;;12.70;90.90;;;;;;5052983;28;20107;-63
2022/04/24 05:43:03;;;;;;;5.25;1.35;;;12.80;90.90;;;;;;5052810;28;20029;-63
2022/04/24 05:45:32;;;;;;;5.10;1.30;;;12.70;90.90;;;;;;5052823;28;20530;-63
2022/04/24 05:47:57;;;;;;;4.65;0.90;;;12.80;90.90;;;;;;5053205;28;20432;-63
2022/04/24 05:50:24;;;;;;;4.38;1.08;;;12.80;90.80;;;;;;5052870;28;20147;-63
2022/04/24 05:52:53;;;;;;;7.75;1.20;;;12.80;90.80;;;;;;5052587;28;20067;-64
2022/04/24 05:55:19;;;;;;;8.68;1.40;;;12.80;90.80;;;;;;5052670;28;20037;-63
2022/04/24 05:57:44;;;;;;;4.78;1.60;;;12.80;90.90;;;;;;5052327;28;20431;-63
2022/04/24 06:00:12;;;;;;;4.97;1.85;;;12.80;91.00;;;;;;5052219;28;20036;-63
2022/04/24 06:02:39;;;;;;;4.25;1.63;;;12.70;91.00;;;;;;5052971;28;20100;-63
2022/04/24 06:05:06;;;;;;;10.07;2.10;;;12.70;91.00;;;;;;5052809;28;20064;-63
2022/04/24 06:07:32;;;;;;;5.85;2.05;;;12.70;90.90;;;;;;5052731;28;20033;-63
2022/04/24 06:09:58;;;;;;;4.15;1.13;;;12.70;90.90;;;;;;5052766;28;20025;-64
2022/04/24 06:12:24;;;;;;;5.55;1.60;;;12.70;90.90;;;;;;5052629;28;20039;-62
2022/04/24 06:14:49;;;;;;;4.72;1.45;;;12.70;91.20;;;;;;5052765;28;20072;-62
2022/04/24 06:17:15;;;;;;;8.85;1.95;;;12.70;91.30;;;;;;5052590;28;20029;-63
2022/04/24 06:19:40;;;;;;;6.85;1.73;;;12.70;91.50;;;;;;5052573;28;20047;-62
2022/04/24 06:22:06;;;;;;;4.72;1.60;;;12.70;91.60;;;;;;5056138;28;20036;-64
2022/04/24 06:24:32;;;;;;;5.93;1.77;;;12.70;92.00;;;;;;5055396;28;20025;-63
2022/04/24 06:26:57;;;;;;;3.50;1.40;;;12.70;92.00;;;;;;5056214;28;20478;-63
2022/04/24 06:29:23;;;;;;;5.95;1.40;;;12.80;92.00;;;;;;5054294;28;20082;-68
2022/04/24 06:31:49;;;;;;;6.88;1.63;;;12.80;91.90;;;;;;5054989;28;20363;-62
2022/04/24 06:34:14;;;;;;;6.72;1.10;;;12.90;91.80;;;;;;5054916;28;20032;-64
2022/04/24 06:36:40;;;;;;;4.28;0.90;;;12.90;91.70;;;;;;5025939;28;20049;-62
2022/04/24 06:39:06;;;;;;;6.18;1.15;;;12.90;91.50;;;;;;5055835;28;20028;-68
2022/04/24 06:41:31;;;;;;;3.10;1.00;;;12.90;91.40;;;;;;5055384;28;20147;-64
2022/04/24 06:43:57;;;;;;;6.88;1.08;;;13.00;91.20;;;;;;5055379;28;20017;-66
2022/04/24 06:46:26;;;;;;;7.43;1.00;;;13.00;91.00;;;;;;5054522;28;20061;-64
2022/04/24 06:48:51;;;;;;;4.72;0.90;;;13.10;90.80;;;;;;5054563;28;20025;-63
2022/04/24 06:51:17;;;;;;;6.07;0.93;;;13.10;90.50;;;;;;5055193;28;20024;-64
2022/04/24 06:53:43;;;;;;;3.97;1.10;;;13.00;90.30;;;;;;5054577;28;20437;-63
2022/04/24 06:56:09;;;;;;;7.65;0.80;;;13.10;90.60;;;;;;5055216;28;20094;-68
2022/04/24 06:58:35;;;;;;;4.60;0.90;;;13.10;90.80;;;;;;5055494;28;20024;-67
2022/04/24 07:01:00;;;;;;;2.25;0.75;;;13.20;90.80;;;;;;5054163;28;20060;-66
2022/04/24 07:03:29;;;;;;;4.95;1.08;;;13.20;90.80;;;;;;5055380;28;20035;-67
2022/04/24 07:05:57;;;;;;;3.78;1.00;;;13.30;90.60;;;;;;5054339;28;20027;-64
2022/04/24 07:08:24;;;;;;;6.78;0.80;;;13.30;90.50;;;;;;5054852;28;20033;-64
2022/04/24 07:10:50;;;;;;;3.42;0.90;;;13.40;90.30;;;;;;5055037;28;20529;-67
2022/04/24 07:13:16;;;;;;;3.55;0.95;;;13.40;90.30;;;;;;5055152;28;20112;-63
2022/04/24 07:15:42;;;;;;;4.72;1.05;;;13.50;90.10;;;;;;5055106;28;20124;-67
2022/04/24 07:18:08;;;;;;;4.18;0.98;;;13.50;89.60;;;;;;5054704;28;20017;-67
2022/04/24 07:20:34;;;;;;;5.90;1.15;;;13.60;88.80;;;;;;5055034;28;20104;-63
2022/04/24 07:23:02;;;;;;;3.15;0.90;;;13.60;87.90;;;;;;5054884;28;20037;-65
2022/04/24 07:25:32;;;;;;;4.75;0.90;;;13.70;87.20;;;;;;5054745;28;20036;-62
2022/04/24 07:27:58;;;;;;;3.47;0.85;;;13.70;87.10;;;;;;5054422;28;20021;-66
2022/04/24 07:30:24;;;;;;;5.55;1.00;;;13.70;87.00;;;;;;5054201;28;20036;-63
2022/04/24 07:32:52;;;;;;;2.40;0.85;;;13.70;86.50;;;;;;5054503;28;20066;-63
2022/04/24 07:35:28;;;;;;;7.65;0.82;;;13.70;86.40;;;;;;5054219;28;20044;-63
2022/04/24 07:37:54;;;;;;;4.68;0.70;;;13.70;86.70;;;;;;5054403;28;20108;-64
2022/04/24 07:40:22;;;;;;;3.38;0.95;;;13.70;87.00;;;;;;5054314;28;20060;-63
2022/04/24 07:42:54;;;;;;;2.92;0.75;;;13.80;87.40;;;;;;5054412;28;20028;-63
2022/04/24 07:45:21;;;;;;;3.10;0.73;;;13.90;87.50;;;;;;5054463;28;20029;-62
2022/04/24 07:47:48;;;;;;;3.45;1.17;;;14.00;87.40;;;;;;5054362;28;20029;-62
2022/04/24 07:50:15;;;;;;;4.68;1.25;;;14.10;87.20;;;;;;5054357;28;20033;-63
2022/04/24 07:52:41;;;;;;;7.07;1.00;;;14.10;86.70;;;;;;5054136;28;20021;-63
2022/04/24 07:55:08;;;;;;;5.25;0.73;;;14.20;86.50;;;;;;5053972;28;20025;-64
2022/04/24 07:57:33;;;;;;;6.20;0.90;;;14.30;86.30;;;;;;5054461;28;20047;-63
2022/04/24 07:59:59;;;;;;;5.43;0.80;;;14.30;85.80;;;;;;5053872;28;20028;-63
2022/04/24 08:02:25;;;;;;;5.20;1.20;;;14.40;85.20;;;;;;5054012;28;20056;-64
2022/04/24 08:04:50;;;;;;;7.22;0.95;;;14.40;83.90;;;;;;5054042;28;20060;-62
2022/04/24 08:07:22;;;;;;;3.65;0.88;;;14.50;83.10;;;;;;5054554;28;20029;-64
2022/04/24 08:09:51;;;;;;;2.97;0.77;;;14.40;83.90;;;;;;5053593;28;20075;-69
2022/04/24 08:12:16;;;;;;;2.92;0.70;;;14.50;83.20;;;;;;5054783;28;20074;-65
2022/04/24 08:14:42;;;;;;;4.82;0.82;;;14.50;81.80;;;;;;5054214;28;20033;-65
2022/04/24 08:17:08;;;;;;;4.75;0.88;;;14.50;81.10;;;;;;5054543;28;20504;-65
2022/04/24 08:19:34;;;;;;;3.72;0.63;;;;;;;;;;5054326;28;20027;-65
2022/04/24 08:22:00;;;;;;;5.28;1.08;;;;;;;;;;5054551;28;20025;-64
2022/04/24 08:24:26;;;;;;;4.20;0.70;;;;;;;;;;5054226;28;20028;-64
2022/04/24 08:26:52;;;;;;;2.58;0.70;;;;;;;;;;5054128;28;20021;-64
2022/04/24 08:29:18;;;;;;;5.30;0.82;;;;;;;;;;5051032;28;20040;-64
2022/04/24 08:31:44;;;;;;;2.60;0.70;;;;;;;;;;5050908;28;20488;-65
2022/04/24 08:34:10;;;;;;;2.60;0.80;;;;;;;;;;5052000;28;20661;-65
2022/04/24 08:36:36;;;;;;;5.53;1.05;;;;;;;;;;5053383;28;20056;-64
2022/04/24 08:39:03;;;;;;;3.85;0.73;;;;;;;;;;5053986;28;20040;-65
2022/04/24 08:41:31;;;;;;;3.85;0.80;;;;;;;;;;5054120;28;20120;-64
2022/04/24 08:43:57;;;;;;;3.60;0.70;;;;;;;;;;5053459;28;20473;-64
2022/04/24 08:46:24;;;;;;;3.30;0.82;;;;;;;;;;5053853;28;20104;-65
2022/04/24 08:48:50;;;;;;;6.93;1.85;;;;;;;;;;5052092;28;20393;-65
2022/04/24 08:51:18;;;;;;;4.57;0.80;;;;;;;;;;5053388;28;20024;-65
2022/04/24 08:53:44;;;;;;;3.45;0.80;;;;;;;;;;5050683;28;20488;-65
2022/04/24 08:56:10;;;;;;;5.07;0.80;;;;;;;;;;5050756;28;20509;-65
2022/04/24 08:58:36;;;;;;;2.33;0.70;;;;;;;;;;5050911;28;20132;-65
2022/04/24 09:01:02;;;;;;;3.13;0.93;;;;;;;;;;5052980;28;20053;-64
2022/04/24 09:03:28;;;;;;;3.88;1.08;;;;;;;;;;5053370;28;20025;-65
2022/04/24 09:05:54;;;;;;;3.83;0.60;;;;;;;;;;5053521;28;20021;-64
2022/04/24 09:08:24;;;;;;;4.18;0.85;;;;;;;;;;5053331;28;20031;-64
2022/04/24 09:10:54;;;;;;;4.47;0.80;;;;;;;;;;5053585;28;20052;-65
2022/04/24 09:16:38;;;;;;;3.05;0.75;;;;;;;;;;5053368;28;20118;-64
2022/04/24 09:19:05;;;;;;;6.25;0.80;;;;;;;;;;5053225;28;20029;-64
2022/04/24 09:21:31;;;;;;;4.75;0.70;;;;;;;;;;5053020;28;20033;-64
2022/04/24 09:24:00;;;;;;;2.92;0.80;;;;;;;;;;5052828;28;20021;-65
2022/04/24 09:26:26;;;;;;;2.67;0.60;;;;;;;;;;5053372;28;20032;-64
2022/04/24 09:28:52;;;;;;;5.38;0.60;;;;;;;;;;5053188;28;20013;-64
2022/04/24 09:31:18;;;;;;;6.05;0.80;;;;;;;;;;5052968;28;20385;-64
2022/04/24 09:33:44;;;;;;;4.13;0.85;;;;;;;;;;5053042;28;20017;-64
2022/04/24 09:36:11;;;;;;;5.75;1.00;;;;;;;;;;5052989;28;20025;-64
2022/04/24 09:38:44;;;;;;;5.70;0.77;;;;;;;;;;5052934;28;20422;-64
2022/04/24 09:41:20;;;;;;;4.32;1.00;;;;;;;;;;5053183;28;20021;-64
2022/04/24 09:43:46;;;;;;;8.57;1.02;;;;;;;;;;5053092;28;20031;-65
2022/04/24 09:46:12;;;;;;;5.30;0.88;;;;;;;;;;5053000;28;20025;-65
2022/04/24 09:48:38;;;;;;;5.20;0.77;;;;;;;;;;5052802;28;20028;-64
2022/04/24 09:51:04;;;;;;;5.40;0.82;;;;;;;;;;5052908;28;20028;-64
2022/04/24 09:53:32;;;;;;;4.47;0.65;;;;;;;;;;5053064;28;20028;-64
2022/04/24 09:55:59;;;;;;;9.27;1.08;;;;;;;;;;5054777;28;20040;-64
2022/04/24 09:58:25;;;;;;;5.57;0.73;;;;;;;;;;5057036;28;20025;-64
2022/04/24 10:00:52;;;;;;;3.80;0.68;;;;;;;;;;5056855;28;20056;-65
2022/04/24 10:03:19;;;;;;;7.43;1.10;;;;;;;;;;5056944;28;20025;-64
2022/04/24 10:05:49;;;;;;;3.22;0.70;;;;;;;;;;5056779;28;20055;-65
2022/04/24 10:08:17;;;;;;;2.35;0.73;;;;;;;;;;5057162;28;20106;-64
2022/04/24 10:10:44;;;;;;;5.97;1.10;;;;;;;;;;5056845;28;20029;-64
2022/04/24 10:13:11;;;;;;;6.35;1.00;;;;;;;;;;5056879;28;20075;-65
2022/04/24 10:15:38;;;;;;;5.63;0.90;;;;;;;;;;5056789;28;20041;-64
2022/04/24 10:18:42;;;;;;;6.18;1.00;;;;;;;;;;5056734;28;20017;-64
2022/04/24 10:21:23;;;;;;;8.65;0.85;;;;;;;;;;5054528;28;20025;-64
2022/04/24 10:23:49;;;;;;;6.22;1.00;;;;;;;;;;5054403;28;20159;-65
2022/04/24 10:26:17;;;;;;;8.68;1.00;;;;;;;;;;5055440;28;20029;-65
2022/04/24 10:28:45;;;;;;;4.60;0.70;;;;;;;;;;5056306;28;20024;-65
2022/04/24 10:31:11;;;;;;;4.03;0.95;;;;;;;;;;5056393;28;20090;-71
2022/04/24 10:33:39;;;;;;;7.95;1.50;;;;;;;;;;5056595;28;20053;-64
2022/04/24 10:36:05;;;;;;;5.68;1.13;;;;;;;;;;5056452;28;20041;-64
2022/04/24 10:38:33;;;;;;;3.75;0.95;;;;;;;;;;5056441;28;20426;-64
2022/04/24 10:41:06;;;;;;;6.00;1.73;;;;;;;;;;5056022;28;20394;-64
2022/04/24 10:43:39;;;;;;;4.82;1.02;;;;;;;;;;5056283;28;20527;-65
2022/04/24 10:46:19;;;;;;;4.35;0.90;;;;;;;;;;5056430;28;20037;-64
2022/04/24 10:48:46;;;;;;;6.20;0.90;;;;;;;;;;5056147;28;20099;-66
2022/04/24 10:51:12;;;;;;;6.82;1.17;;;;;;;;;;5056062;28;20029;-65
2022/04/24 10:53:49;;;;;;;4.95;1.08;;;;;;;;;;5055715;28;20051;-65
2022/04/24 10:56:15;;;;;;;6.03;1.40;;;;;;;;;;5055958;28;20028;-72
2022/04/24 10:58:41;;;;;;;6.00;1.10;;;;;;;;;;5053849;28;20112;-64
2022/04/24 11:01:13;;;;;;;5.18;1.30;;;;;;;;;;5052889;28;20599;-65
2022/04/24 11:03:43;;;;;;;6.65;1.20;;;;;;;;;;5054359;28;20021;-65
2022/04/24 11:06:24;;;;;;;5.82;1.02;;;;;;;;;;5055365;28;20025;-71
2022/04/24 11:08:51;;;;;;;5.50;1.23;;;;;;;;;;5055813;28;20029;-64
2022/04/24 11:11:18;;;;;;;10.98;4.40;;;;;;;;;;5055827;28;20469;-64
2022/04/24 11:13:44;;;;;;;10.85;2.78;;;;;;;;;;5055467;28;20095;-64
2022/04/24 11:16:12;;;;;;;14.05;2.65;;;;;;;;;;5055707;28;20067;-71
2022/04/24 11:18:38;;;;;;;8.50;1.67;;;;;;;;;;5055591;28;20095;-65
2022/04/24 11:21:05;;;;;;;8.82;1.30;;;;;;;;;;5055647;28;20025;-65
2022/04/24 11:23:32;;;;;;;13.20;1.70;;;;;;;;;;5053724;28;20541;-65
2022/04/24 11:25:58;;;;;;;6.68;1.33;;;;;;;;;;5052471;28;20025;-65
2022/04/24 11:28:37;;;;;;;7.85;1.30;;;;;;;;;;5052378;28;20381;-65
2022/04/24 11:31:22;;;;;;;7.55;1.50;;;;;;;;;;5054528;28;20028;-64
2022/04/24 11:34:01;;;;;;;11.35;1.58;;;;;;;;;;5054789;28;20033;-65
2022/04/24 11:36:31;;;;;;;7.45;1.35;;;;;;;;;;5054970;28;20422;-65
2022/04/24 11:38:57;;;;;;;9.10;1.40;;;;;;;;;;5054644;28;20036;-65
2022/04/24 11:41:27;;;;;;;8.85;1.50;;;;;;;;;;5054707;28;20013;-65
2022/04/24 11:43:59;;;;;;;9.27;1.15;;;;;;;;;;5054822;28;20449;-65
2022/04/24 11:51:54;;;;;;;8.38;1.52;;;;;;;;;;5054819;28;20067;-65
2022/04/24 11:54:21;;;;;;;5.88;1.20;;;;;;;;;;5054485;28;20076;-65
2022/04/24 11:56:51;;;;;;;15.00;1.73;;;;;;;;;;5054548;28;20024;-68
2022/04/24 11:59:19;;;;;;;7.00;1.20;;;;;;;;;;5054774;28;20044;-65
2022/04/24 12:01:46;;;;;;;16.55;2.28;;;;;;;;;;5054095;28;20053;-65
2022/04/24 12:04:21;;;;;;;8.85;1.45;;;;;;;;;;5053844;28;20028;-65
2022/04/24 12:06:48;;;;;;;7.10;1.48;;;;;;;;;;5054556;28;20107;-65
2022/04/24 12:09:14;;;;;;;7.70;1.50;;;;;;;;;;5054205;28;20032;-65
2022/04/24 12:11:41;;;;;;;8.23;1.50;;;;;;;;;;5054377;28;20035;-65
2022/04/24 12:14:10;;;;;;;8.85;2.22;;;;;;;;;;5054250;28;20112;-65
2022/04/24 12:16:38;;;;;;;7.25;1.45;;;;;;;;;;5053909;28;20043;-66
2022/04/24 12:19:04;;;;;;;10.00;1.88;;;;;;;;;;5053172;28;20465;-65
2022/04/24 12:21:34;;;;;;;7.35;1.60;;;;;;;;;;5054294;28;20474;-65
2022/04/24 12:24:01;;;;;;;9.38;1.42;;;;;;;;;;5053746;28;20083;-65
2022/04/24 12:26:27;;;;;;;6.40;1.42;;;;;;;;;;5053960;28;20067;-65
2022/04/24 12:28:53;;;;;;;10.05;1.85;;;;;;;;;;5054066;28;20029;-65
2022/04/24 12:31:28;;;;;;;13.00;2.20;;;;;;;;;;5053798;28;20025;-65
2022/04/24 12:33:55;;;;;;;10.45;1.80;;;;;;;;;;5053615;28;20117;-65
2022/04/24 12:36:22;;;;;;;8.05;1.20;;;;;;;;;;5053706;28;20025;-65
2022/04/24 12:38:58;;;;;;;19.45;2.15;;;;;;;;;;5053354;28;20029;-66
2022/04/24 12:41:25;;;;;;;6.68;1.50;;;;;;;;;;5053766;28;20558;-69
2022/04/24 12:43:52;;;;;;;10.05;1.45;;;;;;;;;;5053600;28;20029;-65
2022/04/24 12:46:18;;;;;;;13.40;1.70;;;;;;;;;;5053116;28;20029;-64
2022/04/24 12:48:48;;;;;;;11.35;1.50;;;;;;;;;;5054197;28;20378;-65
2022/04/24 12:51:14;;;;;;;11.80;1.83;;;;;;;;;;5053733;28;20504;-72
2022/04/24 12:53:41;;;;;;;10.15;1.67;;;;;;;;;;5052524;28;20028;-65
2022/04/24 12:56:07;;;;;;;9.27;1.88;;;;;;;;;;5050859;28;20029;-65
2022/04/24 12:58:33;;;;;;;13.13;1.80;;;;;;;;;;5051089;28;20029;-65
2022/04/24 13:01:00;;;;;;;7.53;1.58;;;;;;;;;;5053102;28;20120;-65
2022/04/24 13:03:26;;;;;;;7.75;1.05;;;;;;;;;;5053437;28;20378;-65
2022/04/24 13:05:52;;;;;;;9.77;2.22;;;;;;;;;;5053649;28;20115;-65
2022/04/24 13:08:18;;;;;;;6.60;1.42;;;;;;;;;;5050652;28;20053;-65
2022/04/24 13:10:44;;;;;;;13.60;1.60;;;;;;;;;;5050399;28;20041;-66
2022/04/24 13:13:10;;;;;;;11.77;1.33;;;;;;;;;;5051104;28;20046;-65
2022/04/24 13:15:37;;;;;;;7.78;1.38;;;;;;;;;;5053271;28;20135;-65
2022/04/24 13:18:07;;;;;;;11.80;1.42;;;;;;;;;;5053071;28;20107;-65
2022/04/24 13:20:36;;;;;;;9.02;1.50;;;;;;;;;;5053241;28;20424;-65
2022/04/24 13:23:03;;;;;;;11.73;1.80;;;;;;;;;;5053018;28;20029;-65
2022/04/24 13:25:29;;;;;;;14.05;1.73;;;;;;;;;;5052666;28;20359;-65
2022/04/24 13:27:55;;;;;;;5.63;1.67;;;;;;;;;;5053243;28;20031;-64
2022/04/24 13:30:22;;;;;;;9.10;1.85;;;;;;;;;;5053109;28;20100;-64
2022/04/24 13:32:48;;;;;;;10.80;2.40;;;;;;;;;;5051728;28;20037;-65